createdAt,value
2022-08-19T00:00:15.781Z,16.20
2022-08-19T00:03:05.870Z,15.40
2022-08-19T00:05:34.417Z,14.30
2022-08-19T00:08:03.011Z,13.30
2022-08-19T00:10:31.724Z,14.40
2022-08-19T00:12:59.895Z,14.80
2022-08-19T00:15:28.755Z,11.80
2022-08-19T00:17:56.960Z,14.70
2022-08-19T00:20:25.237Z,12.40
2022-08-19T00:22:53.554Z,14.80
2022-08-19T00:25:30.260Z,16.20
2022-08-19T00:28:00.516Z,14.00
2022-08-19T00:30:29.503Z,13.30
2022-08-19T00:32:59.351Z,13.10
2022-08-19T00:35:28.476Z,12.10
2022-08-19T00:37:57.291Z,14.10
2022-08-19T00:40:26.661Z,13.10
2022-08-19T00:42:55.104Z,12.30
2022-08-19T00:45:27.870Z,13.10
2022-08-19T00:47:55.869Z,14.40
2022-08-19T00:50:24.960Z,14.30
2022-08-19T00:52:54.646Z,15.10
2022-08-19T00:55:29.867Z,13.30
2022-08-19T00:58:03.902Z,13.10
2022-08-19T01:00:35.095Z,13.30
2022-08-19T01:03:06.889Z,12.00
2022-08-19T01:05:37.910Z,13.30
2022-08-19T01:08:08.680Z,13.30
2022-08-19T01:10:49.809Z,13.90
2022-08-19T01:13:22.543Z,13.30
2022-08-19T01:15:57.324Z,13.50
2022-08-19T01:21:07.429Z,11.50
2022-08-19T01:23:44.847Z,11.20
2022-08-19T01:26:21.730Z,12.60
2022-08-19T01:28:54.436Z,12.00
2022-08-19T01:31:33.440Z,12.30
2022-08-19T01:34:04.388Z,13.10
2022-08-19T01:36:40.097Z,12.20
2022-08-19T01:39:12.679Z,11.90
2022-08-19T01:41:41.258Z,13.00
2022-08-19T01:44:18.746Z,12.30
2022-08-19T01:46:49.331Z,12.70
2022-08-19T01:49:22.009Z,12.00
2022-08-19T01:51:51.522Z,10.10
2022-08-19T01:54:27.918Z,13.10
2022-08-19T01:57:06.558Z,12.90
2022-08-19T01:59:37.628Z,12.00
2022-08-19T02:02:09.511Z,11.30
2022-08-19T02:04:39.629Z,12.30
2022-08-19T02:07:09.385Z,11.50
2022-08-19T02:09:37.551Z,10.10
2022-08-19T02:12:09.813Z,11.00
2022-08-19T02:14:38.417Z,11.30
2022-08-19T02:17:07.008Z,11.10
2022-08-19T02:19:35.539Z,11.80
2022-08-19T02:22:07.454Z,11.60
2022-08-19T02:24:35.619Z,13.40
2022-08-19T02:27:04.103Z,12.80
2022-08-19T02:29:32.415Z,13.10
2022-08-19T02:32:00.656Z,10.90
2022-08-19T02:34:28.938Z,11.80
2022-08-19T02:37:00.673Z,10.70
2022-08-19T02:39:31.992Z,11.20
2022-08-19T02:42:00.752Z,12.00
2022-08-19T02:44:31.931Z,11.70
2022-08-19T02:47:00.397Z,12.20
2022-08-19T02:49:28.780Z,12.50
2022-08-19T02:51:57.031Z,12.10
2022-08-19T02:54:25.183Z,11.40
2022-08-19T02:56:53.386Z,12.50
2022-08-19T02:59:23.029Z,10.50
2022-08-19T03:01:51.751Z,11.40
2022-08-19T03:04:20.742Z,12.10
2022-08-19T03:06:50.413Z,11.30
2022-08-19T03:09:21.107Z,10.40
2022-08-19T03:11:49.882Z,12.20
2022-08-19T03:14:21.098Z,11.50
2022-08-19T03:16:53.125Z,9.70
2022-08-19T03:19:22.540Z,10.60
2022-08-19T03:21:52.579Z,10.90
2022-08-19T03:24:22.009Z,10.50
2022-08-19T03:26:58.376Z,10.70
2022-08-19T03:29:30.916Z,11.30
2022-08-19T03:32:04.823Z,10.70
2022-08-19T03:34:37.269Z,11.40
2022-08-19T03:37:11.426Z,11.80
2022-08-19T03:39:41.985Z,12.70
2022-08-19T03:42:38.202Z,11.00
2022-08-19T03:44:59.549Z,11.20
2022-08-19T03:47:27.755Z,10.60
2022-08-19T03:49:55.981Z,10.70
2022-08-19T03:52:24.050Z,10.40
2022-08-19T03:54:52.947Z,10.20
2022-08-19T03:57:20.920Z,10.70
2022-08-19T03:59:52.842Z,11.70
2022-08-19T04:02:21.227Z,12.10
2022-08-19T04:04:49.452Z,10.70
2022-08-19T04:07:19.259Z,11.10
2022-08-19T04:09:47.414Z,10.80
2022-08-19T04:12:16.077Z,9.90
2022-08-19T04:14:44.197Z,11.00
2022-08-19T04:17:14.192Z,11.20
2022-08-19T04:19:44.030Z,11.40
2022-08-19T04:22:12.917Z,12.60
2022-08-19T04:24:41.110Z,11.70
2022-08-19T04:27:09.114Z,11.50
2022-08-19T04:29:40.609Z,11.90
2022-08-19T04:32:09.904Z,11.30
2022-08-19T04:35:01.361Z,11.40
2022-08-19T04:37:35.058Z,10.50
2022-08-19T04:40:26.129Z,10.20
2022-08-19T04:42:55.066Z,12.30
2022-08-19T04:45:23.707Z,10.20
2022-08-19T04:48:26.268Z,13.40
2022-08-19T04:50:46.675Z,13.30
2022-08-19T04:53:15.390Z,12.20
2022-08-19T04:55:44.048Z,10.40
2022-08-19T04:58:12.656Z,10.70
2022-08-19T05:00:41.355Z,10.60
2022-08-19T05:03:09.547Z,10.30
2022-08-19T05:05:44.716Z,10.80
2022-08-19T05:08:30.978Z,10.20
2022-08-19T05:10:59.842Z,9.80
2022-08-19T05:13:28.644Z,10.10
2022-08-19T05:15:59.418Z,12.00
2022-08-19T05:18:46.798Z,10.80
2022-08-19T05:21:38.906Z,15.50
2022-08-19T05:24:11.039Z,26.10
2022-08-19T05:26:42.640Z,15.40
2022-08-19T05:29:11.416Z,14.90
2022-08-19T05:31:41.749Z,12.70
2022-08-19T05:34:20.082Z,14.90
2022-08-19T05:36:51.340Z,14.30
2022-08-19T05:39:21.953Z,16.10
2022-08-19T05:41:58.958Z,18.20
2022-08-19T05:44:34.606Z,12.70
2022-08-19T05:47:06.111Z,12.20
2022-08-19T05:49:35.798Z,12.50
2022-08-19T05:52:11.870Z,13.00
2022-08-19T05:54:42.681Z,11.30
2022-08-19T05:57:11.744Z,11.10
2022-08-19T05:59:41.832Z,12.60
2022-08-19T06:02:09.880Z,13.00
2022-08-19T06:04:37.996Z,10.90
2022-08-19T06:07:12.143Z,13.70
2022-08-19T06:09:43.792Z,14.30
2022-08-19T06:12:33.933Z,14.40
2022-08-19T06:15:10.079Z,13.60
2022-08-19T06:17:39.130Z,12.70
2022-08-19T06:20:13.092Z,13.60
2022-08-19T06:22:45.894Z,12.00
2022-08-19T06:25:16.486Z,10.20
2022-08-19T06:28:11.504Z,12.70
2022-08-19T06:30:33.755Z,12.90
2022-08-19T06:33:01.903Z,10.00
2022-08-19T06:35:30.665Z,11.30
2022-08-19T06:37:58.915Z,12.30
2022-08-19T06:40:28.571Z,13.50
2022-08-19T06:42:57.497Z,11.70
2022-08-19T06:45:34.749Z,11.10
2022-08-19T06:48:04.822Z,11.60
2022-08-19T06:50:32.804Z,10.50
2022-08-19T06:53:04.420Z,11.20
2022-08-19T06:55:33.298Z,10.30
2022-08-19T06:58:06.119Z,12.30
2022-08-19T07:00:34.960Z,10.70
2022-08-19T07:03:07.802Z,10.20
2022-08-19T07:05:47.491Z,10.70
2022-08-19T07:08:22.048Z,10.50
2022-08-19T07:10:50.340Z,12.40
2022-08-19T07:13:18.489Z,10.60
2022-08-19T07:15:48.198Z,14.10
2022-08-19T07:18:16.600Z,11.00
2022-08-19T07:20:45.374Z,11.30
2022-08-19T07:23:15.928Z,10.80
2022-08-19T07:25:52.943Z,12.40
2022-08-19T07:28:23.916Z,11.90
2022-08-19T07:30:54.343Z,10.20
2022-08-19T07:33:23.849Z,11.80
2022-08-19T07:35:56.558Z,10.80
2022-08-19T07:38:25.699Z,12.40
2022-08-19T07:40:55.443Z,9.80
2022-08-19T07:43:35.049Z,9.80
2022-08-19T07:46:04.326Z,11.70
2022-08-19T07:48:34.146Z,11.20
2022-08-19T07:51:06.594Z,10.30
2022-08-19T07:53:39.801Z,10.40
2022-08-19T07:56:08.677Z,10.60
2022-08-19T07:58:42.752Z,9.90
2022-08-19T08:01:18.231Z,10.20
2022-08-19T08:04:16.697Z,9.30
2022-08-19T08:07:04.840Z,8.60
2022-08-19T08:09:39.331Z,10.50
2022-08-19T08:12:36.714Z,10.30
2022-08-19T08:15:13.505Z,9.00
2022-08-19T08:17:49.198Z,8.80
2022-08-19T08:20:21.721Z,9.10
2022-08-19T08:23:28.514Z,9.10
2022-08-19T08:26:00.069Z,9.50
2022-08-19T08:28:30.912Z,10.50
2022-08-19T08:31:00.558Z,9.00
2022-08-19T08:33:34.516Z,12.00
2022-08-19T08:38:39.797Z,9.80
2022-08-19T08:41:36.717Z,10.80
2022-08-19T08:44:05.802Z,9.90
2022-08-19T08:46:53.336Z,10.70
2022-08-19T08:49:43.507Z,9.20
2022-08-19T08:52:37.717Z,8.90
2022-08-19T08:55:23.107Z,9.10
2022-08-19T08:57:56.790Z,9.60
2022-08-19T09:00:32.735Z,9.70
2022-08-19T09:03:04.507Z,9.40
2022-08-19T09:06:27.321Z,8.60
2022-08-19T09:09:46.251Z,8.90
2022-08-19T09:12:37.444Z,10.50
2022-08-19T09:15:12.776Z,8.10
2022-08-19T09:17:41.471Z,9.00
2022-08-19T09:20:11.335Z,9.60
2022-08-19T09:22:45.415Z,8.60
2022-08-19T09:25:27.075Z,9.10
2022-08-19T09:28:02.920Z,9.40
2022-08-19T09:30:42.071Z,9.00
2022-08-19T09:33:10.462Z,8.60
2022-08-19T09:35:43.892Z,10.40
2022-08-19T09:38:22.781Z,10.40
2022-08-19T09:40:51.388Z,9.00
2022-08-19T09:43:33.868Z,9.10
2022-08-19T09:46:10.561Z,9.60
2022-08-19T09:48:43.752Z,8.40
2022-08-19T09:51:19.222Z,8.20
2022-08-19T09:53:52.937Z,9.50
2022-08-19T09:56:24.531Z,10.90
2022-08-19T09:58:52.970Z,9.60
2022-08-19T10:01:26.667Z,8.30
2022-08-19T10:03:58.750Z,9.80
2022-08-19T10:06:44.111Z,9.20
2022-08-19T10:09:18.343Z,9.40
2022-08-19T10:12:06.262Z,8.80
2022-08-19T10:14:35.636Z,8.50
2022-08-19T10:17:17.717Z,9.50
2022-08-19T10:19:55.568Z,9.00
2022-08-19T10:22:25.726Z,9.00
2022-08-19T10:24:55.176Z,8.80
2022-08-19T10:27:24.475Z,9.60
2022-08-19T10:29:55.085Z,9.10
2022-08-19T10:32:33.651Z,8.90
2022-08-19T10:35:09.458Z,9.20
2022-08-19T10:37:47.786Z,8.70
2022-08-19T10:40:28.181Z,10.10
2022-08-19T10:42:57.668Z,8.70
2022-08-19T10:45:28.369Z,8.00
2022-08-19T10:47:57.664Z,10.40
2022-08-19T10:50:45.633Z,9.80
2022-08-19T10:53:14.388Z,9.20
2022-08-19T10:56:01.094Z,10.40
2022-08-19T10:58:29.421Z,9.00
2022-08-19T11:01:00.089Z,10.60
2022-08-19T11:03:31.969Z,8.80
2022-08-19T11:06:06.392Z,8.10
2022-08-19T11:08:38.760Z,9.40
2022-08-19T11:11:10.342Z,10.00
2022-08-19T11:13:42.308Z,8.90
2022-08-19T11:16:17.501Z,10.20
2022-08-19T11:18:51.105Z,9.30
2022-08-19T11:21:33.031Z,9.30
2022-08-19T11:24:09.988Z,9.80
2022-08-19T11:26:41.456Z,9.30
2022-08-19T11:29:14.050Z,9.70
2022-08-19T11:31:47.278Z,8.90
2022-08-19T11:34:21.687Z,10.10
2022-08-19T11:36:52.453Z,10.50
2022-08-19T11:39:23.730Z,8.20
2022-08-19T11:41:52.525Z,9.50
2022-08-19T11:44:22.524Z,9.60
2022-08-19T11:46:51.006Z,9.00
2022-08-19T11:49:21.106Z,8.70
2022-08-19T11:51:51.871Z,9.00
2022-08-19T11:54:22.287Z,9.60
2022-08-19T11:56:50.563Z,11.50
2022-08-19T11:59:19.045Z,9.30
2022-08-19T12:01:47.526Z,8.60
2022-08-19T12:04:15.987Z,9.00
2022-08-19T12:06:47.185Z,9.40
2022-08-19T12:09:16.660Z,9.40
2022-08-19T12:11:46.545Z,9.30
2022-08-19T12:14:15.253Z,8.50
2022-08-19T12:16:50.425Z,8.50
2022-08-19T12:19:22.245Z,8.20
2022-08-19T12:21:51.608Z,9.70
2022-08-19T12:24:24.540Z,8.90
2022-08-19T12:26:54.084Z,9.30
2022-08-19T12:29:25.140Z,8.90
2022-08-19T12:31:53.185Z,8.40
2022-08-19T12:34:21.602Z,11.60
2022-08-19T12:36:50.789Z,10.90
2022-08-19T12:39:19.349Z,9.80
2022-08-19T12:41:51.352Z,9.40
2022-08-19T12:44:28.779Z,8.30
2022-08-19T12:46:59.377Z,9.90
2022-08-19T12:49:54.062Z,7.40
2022-08-19T12:52:23.276Z,9.20
2022-08-19T12:54:55.751Z,8.50
2022-08-19T12:57:32.673Z,7.30
2022-08-19T13:00:14.760Z,8.10
2022-08-19T13:02:47.646Z,7.70
2022-08-19T13:05:22.049Z,8.80
2022-08-19T13:07:54.301Z,6.80
2022-08-19T13:10:26.126Z,7.60
2022-08-19T13:12:55.947Z,7.80
2022-08-19T13:15:25.441Z,7.90
2022-08-19T13:17:57.159Z,6.50
2022-08-19T13:20:27.081Z,6.70
2022-08-19T13:22:58.591Z,7.50
2022-08-19T13:25:27.946Z,7.40
2022-08-19T13:27:56.741Z,6.80
2022-08-19T13:30:44.459Z,7.20
2022-08-19T13:33:16.149Z,6.50
2022-08-19T13:35:53.169Z,6.60
2022-08-19T13:38:24.424Z,6.30
2022-08-19T13:40:56.431Z,5.90
2022-08-19T13:43:30.447Z,5.70
2022-08-19T13:45:59.000Z,6.30
2022-08-19T13:48:28.197Z,6.20
2022-08-19T13:50:57.296Z,6.00
2022-08-19T13:53:26.292Z,6.20
2022-08-19T13:55:55.289Z,6.00
2022-08-19T13:58:24.793Z,5.80
2022-08-19T14:00:53.660Z,5.60
2022-08-19T14:03:22.364Z,4.90
2022-08-19T14:05:50.639Z,5.80
2022-08-19T14:08:20.191Z,5.40
2022-08-19T14:10:49.692Z,5.60
2022-08-19T14:13:23.767Z,5.40
2022-08-19T14:15:53.251Z,5.40
2022-08-19T14:18:22.017Z,5.10
2022-08-19T14:20:50.659Z,4.90
2022-08-19T14:23:19.652Z,5.50
2022-08-19T14:25:48.014Z,5.00
2022-08-19T14:28:17.932Z,4.60
2022-08-19T14:30:46.312Z,4.50
2022-08-19T14:33:15.608Z,4.50
2022-08-19T14:35:46.107Z,5.10
2022-08-19T14:38:28.086Z,4.80
2022-08-19T14:41:14.415Z,4.50
2022-08-19T14:43:43.646Z,4.70
2022-08-19T14:46:13.964Z,4.70
2022-08-19T14:48:45.832Z,4.70
2022-08-19T14:51:20.927Z,4.80
2022-08-19T14:53:50.563Z,4.80
2022-08-19T14:56:25.729Z,5.00
2022-08-19T14:58:55.877Z,4.60
2022-08-19T15:01:25.630Z,4.50
2022-08-19T15:03:55.915Z,4.00
2022-08-19T15:06:27.170Z,4.80
2022-08-19T15:08:59.618Z,4.60
2022-08-19T15:11:33.977Z,4.10
2022-08-19T15:14:03.050Z,4.20
2022-08-19T15:16:31.783Z,4.50
2022-08-19T15:19:01.601Z,4.90
2022-08-19T15:21:31.412Z,4.20
2022-08-19T15:24:02.463Z,4.40
2022-08-19T15:26:33.698Z,4.00
2022-08-19T15:29:04.971Z,4.40
2022-08-19T15:31:38.130Z,3.80
2022-08-19T15:34:08.464Z,3.90
2022-08-19T15:36:37.737Z,3.90
2022-08-19T15:39:07.599Z,3.40
2022-08-19T15:41:37.356Z,3.30
2022-08-19T15:44:15.176Z,3.80
2022-08-19T15:46:47.062Z,4.20
2022-08-19T15:49:19.241Z,4.00
2022-08-19T15:51:50.068Z,3.40
2022-08-19T15:54:22.024Z,3.80
2022-08-19T15:57:10.879Z,3.50
2022-08-19T16:00:02.474Z,3.70
2022-08-19T16:02:53.879Z,2.80
2022-08-19T16:05:46.576Z,3.60
2022-08-19T16:08:15.866Z,3.30
2022-08-19T16:10:44.548Z,3.20
2022-08-19T16:13:13.770Z,3.40
2022-08-19T16:15:45.218Z,3.40
2022-08-19T16:18:14.093Z,3.30
2022-08-19T16:20:42.463Z,3.10
2022-08-19T16:23:11.050Z,3.10
2022-08-19T16:25:40.049Z,3.80
2022-08-19T16:28:09.936Z,3.80
2022-08-19T16:30:40.919Z,3.10
2022-08-19T16:33:10.769Z,3.30
2022-08-19T16:35:39.614Z,3.10
2022-08-19T16:38:07.914Z,2.90
2022-08-19T16:40:36.906Z,2.50
2022-08-19T16:43:05.777Z,3.10
2022-08-19T16:45:34.455Z,2.90
2022-08-19T16:48:04.140Z,3.00
2022-08-19T16:50:48.776Z,3.30
2022-08-19T16:53:29.139Z,3.00
2022-08-19T16:56:01.071Z,2.90
2022-08-19T16:58:34.451Z,2.80
2022-08-19T17:01:07.010Z,2.50
2022-08-19T17:03:37.913Z,2.70
2022-08-19T17:06:20.279Z,2.60
2022-08-19T17:08:53.213Z,2.60
2022-08-19T17:11:25.080Z,2.50
2022-08-19T17:13:57.050Z,2.50
2022-08-19T17:16:32.326Z,2.70
2022-08-19T17:19:06.264Z,2.70
2022-08-19T17:21:40.601Z,3.10
2022-08-19T17:24:09.938Z,2.70
2022-08-19T17:26:39.663Z,2.00
2022-08-19T17:29:08.233Z,2.80
2022-08-19T17:31:37.286Z,2.60
2022-08-19T17:34:06.258Z,2.70
2022-08-19T17:36:35.729Z,2.60
2022-08-19T17:39:06.007Z,2.40
2022-08-19T17:41:35.245Z,3.20
2022-08-19T17:44:05.477Z,2.10
2022-08-19T17:46:34.877Z,2.80
2022-08-19T17:49:03.881Z,2.40
2022-08-19T17:51:45.271Z,3.10
2022-08-19T17:54:19.168Z,3.20
2022-08-19T17:56:48.304Z,3.20
2022-08-19T17:59:17.592Z,2.80
2022-08-19T18:01:53.171Z,3.00
2022-08-19T18:04:26.186Z,2.50
2022-08-19T18:06:55.948Z,2.50
2022-08-19T18:09:41.729Z,2.70
2022-08-19T18:12:14.195Z,2.40
2022-08-19T18:14:42.963Z,2.80
2022-08-19T18:17:17.406Z,2.00
2022-08-19T18:19:47.854Z,2.30
2022-08-19T18:22:36.999Z,2.30
2022-08-19T18:25:11.697Z,2.70
2022-08-19T18:30:10.516Z,2.30
2022-08-19T18:32:42.343Z,2.10
2022-08-19T18:35:16.110Z,2.60
2022-08-19T18:37:46.179Z,2.10
2022-08-19T18:40:40.575Z,2.20
2022-08-19T18:43:19.803Z,2.50
2022-08-19T18:46:07.411Z,3.10
2022-08-19T18:48:58.340Z,3.30
2022-08-19T18:51:32.483Z,2.70
2022-08-19T18:54:01.560Z,2.50
2022-08-19T18:56:35.769Z,3.10
2022-08-19T18:59:03.944Z,3.50
2022-08-19T19:01:37.151Z,2.90
2022-08-19T19:04:12.033Z,3.20
2022-08-19T19:06:42.765Z,3.60
2022-08-19T19:09:19.786Z,3.80
2022-08-19T19:11:54.330Z,3.70
2022-08-19T19:14:48.235Z,3.60
2022-08-19T19:17:18.342Z,3.50
2022-08-19T19:19:46.472Z,4.10
2022-08-19T19:22:19.887Z,3.20
2022-08-19T19:24:48.558Z,4.50
2022-08-19T19:27:20.635Z,3.40
2022-08-19T19:29:52.217Z,3.60
2022-08-19T19:32:29.527Z,3.70
2022-08-19T19:34:57.726Z,3.60
2022-08-19T19:37:25.910Z,3.60
2022-08-19T19:39:53.918Z,4.30
2022-08-19T19:42:24.269Z,4.90
2022-08-19T19:44:56.215Z,4.50
2022-08-19T19:47:28.547Z,3.70
2022-08-19T19:50:14.417Z,3.40
2022-08-19T19:52:46.807Z,3.20
2022-08-19T19:55:19.548Z,3.70
2022-08-19T19:57:49.045Z,4.20
2022-08-19T20:00:19.148Z,3.30
2022-08-19T20:02:50.889Z,4.50
2022-08-19T20:05:21.627Z,3.90
2022-08-19T20:08:11.259Z,3.90
2022-08-19T20:10:42.589Z,4.20
2022-08-19T20:13:15.734Z,4.00
2022-08-19T20:15:44.417Z,4.40
2022-08-19T20:18:16.016Z,3.50
2022-08-19T20:20:50.258Z,3.30
2022-08-19T20:23:21.880Z,4.30
2022-08-19T20:25:51.795Z,4.00
2022-08-19T20:28:22.647Z,4.00
2022-08-19T20:30:51.167Z,4.40
2022-08-19T20:33:20.083Z,4.20
2022-08-19T20:35:48.055Z,5.00
2022-08-19T20:38:16.128Z,3.50
2022-08-19T20:40:44.361Z,5.10
2022-08-19T20:43:14.286Z,6.80
2022-08-19T20:45:42.601Z,9.20
2022-08-19T20:48:12.617Z,7.20
2022-08-19T20:50:41.326Z,9.80
2022-08-19T20:53:13.693Z,7.70
2022-08-19T20:55:45.563Z,8.50
2022-08-19T20:58:14.420Z,10.00
2022-08-19T21:00:45.733Z,10.30
2022-08-19T21:03:22.736Z,9.60
2022-08-19T21:05:51.060Z,9.20
2022-08-19T21:08:19.483Z,11.50
2022-08-19T21:10:51.074Z,9.10
2022-08-19T21:13:20.890Z,10.60
2022-08-19T21:15:49.795Z,11.30
2022-08-19T21:18:21.130Z,9.80
2022-08-19T21:20:50.949Z,9.90
2022-08-19T21:23:26.388Z,9.00
2022-08-19T21:25:58.389Z,9.10
2022-08-19T21:28:35.016Z,9.10
2022-08-19T21:31:10.590Z,10.00
2022-08-19T21:33:39.012Z,13.20
2022-08-19T21:36:08.169Z,10.80
2022-08-19T21:38:37.848Z,9.50
2022-08-19T21:41:07.343Z,10.20
2022-08-19T21:43:38.353Z,9.10
2022-08-19T21:46:07.842Z,10.60
2022-08-19T21:48:36.925Z,8.30
2022-08-19T21:51:05.013Z,9.60
2022-08-19T21:53:34.598Z,9.00
2022-08-19T21:56:06.528Z,10.80
2022-08-19T21:58:36.579Z,9.30
2022-08-19T22:01:08.138Z,11.10
2022-08-19T22:03:39.037Z,9.70
2022-08-19T22:06:07.394Z,10.10
2022-08-19T22:08:36.565Z,9.10
2022-08-19T22:11:05.349Z,10.20
2022-08-19T22:13:40.153Z,10.60
2022-08-19T22:16:10.159Z,11.30
2022-08-19T22:18:38.200Z,10.60
2022-08-19T22:21:11.725Z,10.60
2022-08-19T22:26:12.522Z,10.20
2022-08-19T22:28:42.681Z,10.10
2022-08-19T22:31:11.892Z,9.00
2022-08-19T22:33:40.595Z,9.30
2022-08-19T22:36:09.286Z,11.80
2022-08-19T22:38:38.428Z,8.00
2022-08-19T22:41:08.006Z,7.80
2022-08-19T22:43:37.674Z,7.90
2022-08-19T22:46:17.114Z,8.50
2022-08-19T22:48:47.402Z,7.30
2022-08-19T22:51:35.072Z,8.70
2022-08-19T22:54:04.373Z,9.00
2022-08-19T22:56:32.622Z,6.70
2022-08-19T22:59:01.027Z,7.80
2022-08-19T23:01:30.913Z,7.90
2022-08-19T23:04:00.130Z,8.80
2022-08-19T23:06:33.903Z,7.30
2022-08-19T23:09:07.284Z,9.20
2022-08-19T23:11:42.089Z,7.20
2022-08-19T23:14:12.590Z,6.90
2022-08-19T23:16:42.256Z,8.70
2022-08-19T23:19:13.004Z,6.90
2022-08-19T23:21:43.091Z,8.20
2022-08-19T23:24:11.779Z,10.50
2022-08-19T23:27:00.378Z,8.00
2022-08-19T23:30:01.039Z,7.30
2022-08-19T23:32:35.192Z,7.50
2022-08-19T23:35:04.667Z,7.30
2022-08-19T23:37:32.705Z,9.20
2022-08-19T23:40:01.441Z,9.90
2022-08-19T23:42:29.670Z,9.20
2022-08-19T23:45:05.072Z,8.20
2022-08-19T23:47:36.151Z,6.70
2022-08-19T23:50:10.239Z,7.90
2022-08-19T23:53:00.760Z,7.60
2022-08-19T23:55:35.385Z,6.70
2022-08-19T23:58:07.856Z,7.70
